sensor_id;sensor_type;location;lat;lon;timestamp;P1;durP1;ratioP1;P2;durP2;ratioP2
44120;SDS011;29783;52.504;13.478;2023-10-13T00:02:07;16.25;;;3.83;;
44120;SDS011;29783;52.504;13.478;2023-10-13T00:04:33;10.80;;;3.90;;
44120;SDS011;29783;52.504;13.478;2023-10-13T00:07:01;12.90;;;3.95;;
44120;SDS011;29783;52.504;13.478;2023-10-13T00:09:27;16.30;;;4.10;;
44120;SDS011;29783;52.504;13.478;2023-10-13T00:12:03;12.82;;;4.40;;
44120;SDS011;29783;52.504;13.478;2023-10-13T00:14:33;16.35;;;4.82;;
44120;SDS011;29783;52.504;13.478;2023-10-13T00:17:00;14.68;;;4.90;;
44120;SDS011;29783;52.504;13.478;2023-10-13T00:19:30;22.55;;;5.88;;
44120;SDS011;29783;52.504;13.478;2023-10-13T00:22:23;17.52;;;5.32;;
44120;SDS011;29783;52.504;13.478;2023-10-13T00:24:49;12.32;;;4.57;;
44120;SDS011;29783;52.504;13.478;2023-10-13T00:27:20;13.38;;;4.28;;
44120;SDS011;29783;52.504;13.478;2023-10-13T00:32:45;14.50;;;4.07;;
44120;SDS011;29783;52.504;13.478;2023-10-13T00:35:20;12.93;;;3.25;;
44120;SDS011;29783;52.504;13.478;2023-10-13T00:37:53;9.93;;;3.67;;
44120;SDS011;29783;52.504;13.478;2023-10-13T00:40:24;16.25;;;3.13;;
44120;SDS011;29783;52.504;13.478;2023-10-13T00:42:56;7.70;;;2.58;;
44120;SDS011;29783;52.504;13.478;2023-10-13T00:45:41;12.50;;;3.00;;
44120;SDS011;29783;52.504;13.478;2023-10-13T00:48:10;12.10;;;3.03;;
44120;SDS011;29783;52.504;13.478;2023-10-13T00:50:37;10.85;;;2.92;;
44120;SDS011;29783;52.504;13.478;2023-10-13T00:53:04;8.95;;;3.00;;
44120;SDS011;29783;52.504;13.478;2023-10-13T00:55:29;12.15;;;3.10;;
44120;SDS011;29783;52.504;13.478;2023-10-13T00:57:58;9.68;;;2.95;;
44120;SDS011;29783;52.504;13.478;2023-10-13T01:00:28;11.25;;;3.03;;
44120;SDS011;29783;52.504;13.478;2023-10-13T01:02:58;9.00;;;2.85;;
44120;SDS011;29783;52.504;13.478;2023-10-13T01:08:01;9.75;;;2.70;;
44120;SDS011;29783;52.504;13.478;2023-10-13T01:10:28;5.95;;;2.30;;
44120;SDS011;29783;52.504;13.478;2023-10-13T01:12:57;10.65;;;2.75;;
44120;SDS011;29783;52.504;13.478;2023-10-13T01:15:24;8.07;;;2.50;;
44120;SDS011;29783;52.504;13.478;2023-10-13T01:17:54;10.00;;;2.63;;
44120;SDS011;29783;52.504;13.478;2023-10-13T01:20:39;9.70;;;2.78;;
44120;SDS011;29783;52.504;13.478;2023-10-13T01:23:17;11.95;;;2.67;;
44120;SDS011;29783;52.504;13.478;2023-10-13T01:25:49;7.85;;;2.90;;
44120;SDS011;29783;52.504;13.478;2023-10-13T01:28:15;10.18;;;2.70;;
44120;SDS011;29783;52.504;13.478;2023-10-13T01:30:42;9.10;;;2.92;;
44120;SDS011;29783;52.504;13.478;2023-10-13T01:33:09;10.50;;;2.70;;
44120;SDS011;29783;52.504;13.478;2023-10-13T01:35:36;8.07;;;2.42;;
44120;SDS011;29783;52.504;13.478;2023-10-13T01:38:07;14.57;;;3.22;;
44120;SDS011;29783;52.504;13.478;2023-10-13T01:40:34;7.28;;;2.60;;
44120;SDS011;29783;52.504;13.478;2023-10-13T01:43:00;9.73;;;3.13;;
44120;SDS011;29783;52.504;13.478;2023-10-13T01:45:26;9.73;;;3.88;;
44120;SDS011;29783;52.504;13.478;2023-10-13T01:47:55;10.82;;;3.92;;
44120;SDS011;29783;52.504;13.478;2023-10-13T01:50:21;16.35;;;4.57;;
44120;SDS011;29783;52.504;13.478;2023-10-13T01:52:56;13.63;;;4.90;;
44120;SDS011;29783;52.504;13.478;2023-10-13T01:55:38;11.63;;;4.68;;
44120;SDS011;29783;52.504;13.478;2023-10-13T01:58:08;13.02;;;4.90;;
44120;SDS011;29783;52.504;13.478;2023-10-13T02:00:41;14.48;;;5.18;;
44120;SDS011;29783;52.504;13.478;2023-10-13T02:03:09;18.85;;;5.40;;
44120;SDS011;29783;52.504;13.478;2023-10-13T02:05:42;16.58;;;5.00;;
44120;SDS011;29783;52.504;13.478;2023-10-13T02:08:14;16.25;;;4.75;;
44120;SDS011;29783;52.504;13.478;2023-10-13T02:10:53;16.60;;;5.05;;
44120;SDS011;29783;52.504;13.478;2023-10-13T02:13:20;14.00;;;4.95;;
44120;SDS011;29783;52.504;13.478;2023-10-13T02:15:47;19.92;;;5.38;;
44120;SDS011;29783;52.504;13.478;2023-10-13T02:18:17;23.25;;;6.13;;
44120;SDS011;29783;52.504;13.478;2023-10-13T02:20:51;22.42;;;4.80;;
44120;SDS011;29783;52.504;13.478;2023-10-13T02:23:23;24.48;;;5.55;;
44120;SDS011;29783;52.504;13.478;2023-10-13T02:26:00;14.18;;;5.25;;
44120;SDS011;29783;52.504;13.478;2023-10-13T02:28:28;20.67;;;5.20;;
44120;SDS011;29783;52.504;13.478;2023-10-13T02:30:54;24.70;;;5.60;;
44120;SDS011;29783;52.504;13.478;2023-10-13T02:33:22;14.60;;;5.63;;
44120;SDS011;29783;52.504;13.478;2023-10-13T02:35:55;20.98;;;6.05;;
44120;SDS011;29783;52.504;13.478;2023-10-13T02:38:31;20.13;;;6.18;;
44120;SDS011;29783;52.504;13.478;2023-10-13T02:41:01;18.75;;;6.50;;
44120;SDS011;29783;52.504;13.478;2023-10-13T02:43:33;21.25;;;6.32;;
44120;SDS011;29783;52.504;13.478;2023-10-13T02:46:00;15.40;;;6.20;;
44120;SDS011;29783;52.504;13.478;2023-10-13T02:48:26;16.17;;;6.63;;
44120;SDS011;29783;52.504;13.478;2023-10-13T02:51:04;18.77;;;7.07;;
44120;SDS011;29783;52.504;13.478;2023-10-13T02:53:40;18.23;;;6.90;;
44120;SDS011;29783;52.504;13.478;2023-10-13T02:56:13;14.15;;;6.25;;
44120;SDS011;29783;52.504;13.478;2023-10-13T02:58:45;21.92;;;6.80;;
44120;SDS011;29783;52.504;13.478;2023-10-13T03:01:18;20.42;;;7.93;;
44120;SDS011;29783;52.504;13.478;2023-10-13T03:03:48;16.73;;;6.88;;
44120;SDS011;29783;52.504;13.478;2023-10-13T03:06:17;21.45;;;7.07;;
44120;SDS011;29783;52.504;13.478;2023-10-13T03:08:46;18.27;;;7.45;;
44120;SDS011;29783;52.504;13.478;2023-10-13T03:11:12;16.27;;;7.80;;
44120;SDS011;29783;52.504;13.478;2023-10-13T03:13:39;18.90;;;7.30;;
44120;SDS011;29783;52.504;13.478;2023-10-13T03:16:13;18.52;;;8.25;;
44120;SDS011;29783;52.504;13.478;2023-10-13T03:18:44;25.98;;;8.40;;
44120;SDS011;29783;52.504;13.478;2023-10-13T03:21:21;23.02;;;8.23;;
44120;SDS011;29783;52.504;13.478;2023-10-13T03:23:56;26.23;;;8.45;;
44120;SDS011;29783;52.504;13.478;2023-10-13T03:26:31;22.80;;;8.43;;
44120;SDS011;29783;52.504;13.478;2023-10-13T03:29:01;20.63;;;8.50;;
44120;SDS011;29783;52.504;13.478;2023-10-13T03:31:30;21.63;;;9.10;;
44120;SDS011;29783;52.504;13.478;2023-10-13T03:34:01;21.38;;;9.18;;
44120;SDS011;29783;52.504;13.478;2023-10-13T03:36:30;17.98;;;8.90;;
44120;SDS011;29783;52.504;13.478;2023-10-13T03:39:14;21.35;;;10.23;;
44120;SDS011;29783;52.504;13.478;2023-10-13T03:41:40;18.92;;;10.15;;
44120;SDS011;29783;52.504;13.478;2023-10-13T03:44:06;25.55;;;10.35;;
44120;SDS011;29783;52.504;13.478;2023-10-13T03:46:42;20.60;;;10.02;;
44120;SDS011;29783;52.504;13.478;2023-10-13T03:49:08;20.92;;;10.65;;
44120;SDS011;29783;52.504;13.478;2023-10-13T03:51:38;19.48;;;10.40;;
44120;SDS011;29783;52.504;13.478;2023-10-13T03:54:05;21.50;;;10.77;;
44120;SDS011;29783;52.504;13.478;2023-10-13T03:56:34;18.38;;;11.20;;
44120;SDS011;29783;52.504;13.478;2023-10-13T03:59:05;22.60;;;12.13;;
44120;SDS011;29783;52.504;13.478;2023-10-13T04:01:35;19.48;;;13.07;;
44120;SDS011;29783;52.504;13.478;2023-10-13T04:04:24;24.40;;;12.68;;
44120;SDS011;29783;52.504;13.478;2023-10-13T04:07:03;20.45;;;12.32;;
44120;SDS011;29783;52.504;13.478;2023-10-13T04:09:32;33.50;;;13.63;;
44120;SDS011;29783;52.504;13.478;2023-10-13T04:12:01;26.83;;;13.52;;
44120;SDS011;29783;52.504;13.478;2023-10-13T04:14:28;30.00;;;14.27;;
44120;SDS011;29783;52.504;13.478;2023-10-13T04:17:17;23.30;;;15.25;;
44120;SDS011;29783;52.504;13.478;2023-10-13T04:19:47;39.03;;;16.63;;
44120;SDS011;29783;52.504;13.478;2023-10-13T04:22:38;30.73;;;16.55;;
44120;SDS011;29783;52.504;13.478;2023-10-13T04:28:08;30.63;;;17.52;;
44120;SDS011;29783;52.504;13.478;2023-10-13T04:33:22;28.65;;;17.42;;
44120;SDS011;29783;52.504;13.478;2023-10-13T04:36:09;30.02;;;18.05;;
44120;SDS011;29783;52.504;13.478;2023-10-13T04:39:01;32.08;;;18.10;;
44120;SDS011;29783;52.504;13.478;2023-10-13T04:41:31;27.73;;;17.75;;
44120;SDS011;29783;52.504;13.478;2023-10-13T04:44:05;32.78;;;18.88;;
44120;SDS011;29783;52.504;13.478;2023-10-13T04:46:56;31.92;;;19.20;;
44120;SDS011;29783;52.504;13.478;2023-10-13T04:49:26;35.17;;;18.27;;
44120;SDS011;29783;52.504;13.478;2023-10-13T04:51:59;34.55;;;20.08;;
44120;SDS011;29783;52.504;13.478;2023-10-13T04:54:33;25.85;;;18.50;;
44120;SDS011;29783;52.504;13.478;2023-10-13T04:57:10;26.65;;;19.67;;
44120;SDS011;29783;52.504;13.478;2023-10-13T04:59:55;27.10;;;18.63;;
44120;SDS011;29783;52.504;13.478;2023-10-13T05:02:39;25.88;;;17.75;;
44120;SDS011;29783;52.504;13.478;2023-10-13T05:05:10;32.92;;;21.00;;
44120;SDS011;29783;52.504;13.478;2023-10-13T05:07:43;29.58;;;20.40;;
44120;SDS011;29783;52.504;13.478;2023-10-13T05:10:30;29.17;;;19.48;;
44120;SDS011;29783;52.504;13.478;2023-10-13T05:13:16;30.85;;;18.50;;
44120;SDS011;29783;52.504;13.478;2023-10-13T05:16:00;27.90;;;18.50;;
44120;SDS011;29783;52.504;13.478;2023-10-13T05:18:44;32.90;;;18.23;;
44120;SDS011;29783;52.504;13.478;2023-10-13T05:21:28;28.10;;;18.90;;
44120;SDS011;29783;52.504;13.478;2023-10-13T05:24:13;32.40;;;18.05;;
44120;SDS011;29783;52.504;13.478;2023-10-13T05:26:56;22.58;;;17.73;;
44120;SDS011;29783;52.504;13.478;2023-10-13T05:29:41;30.70;;;17.45;;
44120;SDS011;29783;52.504;13.478;2023-10-13T05:32:26;29.23;;;17.25;;
44120;SDS011;29783;52.504;13.478;2023-10-13T05:35:14;25.67;;;18.02;;
44120;SDS011;29783;52.504;13.478;2023-10-13T05:37:59;28.40;;;17.88;;
44120;SDS011;29783;52.504;13.478;2023-10-13T05:43:58;25.20;;;17.77;;
44120;SDS011;29783;52.504;13.478;2023-10-13T05:46:42;23.15;;;16.70;;
44120;SDS011;29783;52.504;13.478;2023-10-13T05:49:14;23.17;;;15.80;;
44120;SDS011;29783;52.504;13.478;2023-10-13T05:51:40;23.08;;;16.60;;
44120;SDS011;29783;52.504;13.478;2023-10-13T05:54:18;20.40;;;15.57;;
44120;SDS011;29783;52.504;13.478;2023-10-13T05:56:44;24.20;;;15.45;;
44120;SDS011;29783;52.504;13.478;2023-10-13T05:59:30;24.52;;;16.13;;
44120;SDS011;29783;52.504;13.478;2023-10-13T06:02:16;19.25;;;15.25;;
44120;SDS011;29783;52.504;13.478;2023-10-13T06:05:01;35.50;;;15.27;;
44120;SDS011;29783;52.504;13.478;2023-10-13T06:07:50;27.67;;;17.42;;
44120;SDS011;29783;52.504;13.478;2023-10-13T06:10:39;28.58;;;17.30;;
44120;SDS011;29783;52.504;13.478;2023-10-13T06:13:23;19.77;;;14.45;;
44120;SDS011;29783;52.504;13.478;2023-10-13T06:16:11;26.17;;;15.27;;
44120;SDS011;29783;52.504;13.478;2023-10-13T06:18:57;27.85;;;15.20;;
44120;SDS011;29783;52.504;13.478;2023-10-13T06:21:58;22.55;;;13.88;;
44120;SDS011;29783;52.504;13.478;2023-10-13T06:24:42;24.73;;;13.57;;
44120;SDS011;29783;52.504;13.478;2023-10-13T06:27:26;22.92;;;13.77;;
44120;SDS011;29783;52.504;13.478;2023-10-13T06:30:10;19.83;;;12.70;;
44120;SDS011;29783;52.504;13.478;2023-10-13T06:32:37;28.45;;;15.05;;
44120;SDS011;29783;52.504;13.478;2023-10-13T06:35:05;22.45;;;13.75;;
44120;SDS011;29783;52.504;13.478;2023-10-13T06:37:40;26.27;;;13.95;;
44120;SDS011;29783;52.504;13.478;2023-10-13T06:40:10;24.55;;;15.35;;
44120;SDS011;29783;52.504;13.478;2023-10-13T06:42:46;25.27;;;15.00;;
44120;SDS011;29783;52.504;13.478;2023-10-13T06:45:12;21.67;;;14.68;;
44120;SDS011;29783;52.504;13.478;2023-10-13T06:47:38;27.77;;;14.23;;
44120;SDS011;29783;52.504;13.478;2023-10-13T06:50:10;25.10;;;13.80;;
44120;SDS011;29783;52.504;13.478;2023-10-13T06:52:43;24.88;;;14.00;;
44120;SDS011;29783;52.504;13.478;2023-10-13T06:55:10;22.70;;;13.95;;
44120;SDS011;29783;52.504;13.478;2023-10-13T06:57:45;25.77;;;14.05;;
44120;SDS011;29783;52.504;13.478;2023-10-13T07:00:12;21.75;;;14.90;;
44120;SDS011;29783;52.504;13.478;2023-10-13T07:03:13;20.00;;;13.35;;
44120;SDS011;29783;52.504;13.478;2023-10-13T07:05:48;22.55;;;13.13;;
44120;SDS011;29783;52.504;13.478;2023-10-13T07:08:14;20.20;;;12.25;;
44120;SDS011;29783;52.504;13.478;2023-10-13T07:10:54;26.55;;;11.90;;
44120;SDS011;29783;52.504;13.478;2023-10-13T07:13:47;16.95;;;10.90;;
44120;SDS011;29783;52.504;13.478;2023-10-13T07:16:16;22.40;;;9.98;;
44120;SDS011;29783;52.504;13.478;2023-10-13T07:18:43;26.10;;;9.93;;
44120;SDS011;29783;52.504;13.478;2023-10-13T07:21:15;14.38;;;9.20;;
44120;SDS011;29783;52.504;13.478;2023-10-13T07:23:41;11.95;;;8.75;;
44120;SDS011;29783;52.504;13.478;2023-10-13T07:26:25;17.38;;;9.02;;
44120;SDS011;29783;52.504;13.478;2023-10-13T07:28:51;14.57;;;7.97;;
44120;SDS011;29783;52.504;13.478;2023-10-13T07:31:17;16.98;;;8.85;;
44120;SDS011;29783;52.504;13.478;2023-10-13T07:33:45;14.00;;;8.35;;
44120;SDS011;29783;52.504;13.478;2023-10-13T07:36:12;22.42;;;8.02;;
44120;SDS011;29783;52.504;13.478;2023-10-13T07:38:45;14.25;;;7.60;;
44120;SDS011;29783;52.504;13.478;2023-10-13T07:41:29;17.50;;;7.43;;
44120;SDS011;29783;52.504;13.478;2023-10-13T07:43:57;13.73;;;7.07;;
44120;SDS011;29783;52.504;13.478;2023-10-13T07:46:24;14.90;;;7.15;;
44120;SDS011;29783;52.504;13.478;2023-10-13T07:48:56;15.15;;;7.40;;
44120;SDS011;29783;52.504;13.478;2023-10-13T07:51:33;18.63;;;6.68;;
44120;SDS011;29783;52.504;13.478;2023-10-13T07:54:09;13.02;;;6.93;;
44120;SDS011;29783;52.504;13.478;2023-10-13T07:56:39;15.20;;;6.43;;
44120;SDS011;29783;52.504;13.478;2023-10-13T07:59:05;11.05;;;6.38;;
44120;SDS011;29783;52.504;13.478;2023-10-13T08:01:33;12.52;;;6.40;;
44120;SDS011;29783;52.504;13.478;2023-10-13T08:03:59;14.88;;;6.97;;
44120;SDS011;29783;52.504;13.478;2023-10-13T08:06:36;9.57;;;5.93;;
44120;SDS011;29783;52.504;13.478;2023-10-13T08:09:02;15.73;;;7.07;;
44120;SDS011;29783;52.504;13.478;2023-10-13T08:11:37;13.32;;;6.38;;
44120;SDS011;29783;52.504;13.478;2023-10-13T08:14:03;10.52;;;6.20;;
44120;SDS011;29783;52.504;13.478;2023-10-13T08:16:40;10.05;;;5.95;;
44120;SDS011;29783;52.504;13.478;2023-10-13T08:19:18;10.38;;;5.75;;
44120;SDS011;29783;52.504;13.478;2023-10-13T08:22:04;11.27;;;6.28;;
44120;SDS011;29783;52.504;13.478;2023-10-13T08:24:46;10.98;;;5.53;;
44120;SDS011;29783;52.504;13.478;2023-10-13T08:27:13;15.35;;;6.00;;
44120;SDS011;29783;52.504;13.478;2023-10-13T08:29:43;10.40;;;5.43;;
44120;SDS011;29783;52.504;13.478;2023-10-13T08:32:23;11.32;;;5.35;;
44120;SDS011;29783;52.504;13.478;2023-10-13T08:34:52;14.80;;;5.80;;
44120;SDS011;29783;52.504;13.478;2023-10-13T08:37:18;13.05;;;5.53;;
44120;SDS011;29783;52.504;13.478;2023-10-13T08:39:51;8.70;;;5.85;;
44120;SDS011;29783;52.504;13.478;2023-10-13T08:42:33;10.68;;;5.55;;
44120;SDS011;29783;52.504;13.478;2023-10-13T08:47:56;8.57;;;5.18;;
44120;SDS011;29783;52.504;13.478;2023-10-13T08:50:50;12.10;;;5.65;;
44120;SDS011;29783;52.504;13.478;2023-10-13T08:53:20;13.40;;;5.32;;
44120;SDS011;29783;52.504;13.478;2023-10-13T08:55:59;12.63;;;5.07;;
44120;SDS011;29783;52.504;13.478;2023-10-13T08:58:52;9.02;;;5.30;;
44120;SDS011;29783;52.504;13.478;2023-10-13T09:01:28;12.50;;;5.55;;
44120;SDS011;29783;52.504;13.478;2023-10-13T09:04:04;13.80;;;5.45;;
44120;SDS011;29783;52.504;13.478;2023-10-13T09:09:15;10.68;;;4.88;;
44120;SDS011;29783;52.504;13.478;2023-10-13T09:12:00;14.27;;;5.13;;
44120;SDS011;29783;52.504;13.478;2023-10-13T09:17:45;9.35;;;5.00;;
44120;SDS011;29783;52.504;13.478;2023-10-13T09:20:18;12.48;;;5.20;;
44120;SDS011;29783;52.504;13.478;2023-10-13T09:23:19;11.13;;;5.15;;
44120;SDS011;29783;52.504;13.478;2023-10-13T09:26:05;14.93;;;5.00;;
44120;SDS011;29783;52.504;13.478;2023-10-13T09:28:34;11.45;;;4.47;;
44120;SDS011;29783;52.504;13.478;2023-10-13T09:31:02;6.45;;;4.43;;
44120;SDS011;29783;52.504;13.478;2023-10-13T09:33:32;16.27;;;4.82;;
44120;SDS011;29783;52.504;13.478;2023-10-13T09:36:01;7.57;;;4.97;;
44120;SDS011;29783;52.504;13.478;2023-10-13T09:38:33;9.95;;;4.82;;
44120;SDS011;29783;52.504;13.478;2023-10-13T09:40:59;12.02;;;4.88;;
44120;SDS011;29783;52.504;13.478;2023-10-13T09:43:43;9.57;;;4.40;;
44120;SDS011;29783;52.504;13.478;2023-10-13T09:46:10;9.10;;;4.65;;
44120;SDS011;29783;52.504;13.478;2023-10-13T09:48:44;11.48;;;4.90;;
44120;SDS011;29783;52.504;13.478;2023-10-13T09:51:14;11.60;;;4.78;;
44120;SDS011;29783;52.504;13.478;2023-10-13T09:53:47;7.30;;;4.60;;
44120;SDS011;29783;52.504;13.478;2023-10-13T09:56:21;10.57;;;4.70;;
44120;SDS011;29783;52.504;13.478;2023-10-13T09:59:03;15.95;;;5.30;;
44120;SDS011;29783;52.504;13.478;2023-10-13T10:04:17;9.18;;;4.68;;
44120;SDS011;29783;52.504;13.478;2023-10-13T10:06:53;10.98;;;4.97;;
44120;SDS011;29783;52.504;13.478;2023-10-13T10:09:25;12.88;;;5.13;;
44120;SDS011;29783;52.504;13.478;2023-10-13T10:14:52;14.52;;;4.65;;
44120;SDS011;29783;52.504;13.478;2023-10-13T10:17:21;11.32;;;5.18;;
44120;SDS011;29783;52.504;13.478;2023-10-13T10:19:52;9.00;;;4.88;;
44120;SDS011;29783;52.504;13.478;2023-10-13T10:22:39;6.07;;;4.35;;
44120;SDS011;29783;52.504;13.478;2023-10-13T10:25:09;9.02;;;4.90;;
44120;SDS011;29783;52.504;13.478;2023-10-13T10:28:00;8.50;;;4.80;;
44120;SDS011;29783;52.504;13.478;2023-10-13T10:30:38;11.15;;;4.75;;
44120;SDS011;29783;52.504;13.478;2023-10-13T10:33:05;8.98;;;4.68;;
44120;SDS011;29783;52.504;13.478;2023-10-13T10:38:24;13.10;;;4.80;;
44120;SDS011;29783;52.504;13.478;2023-10-13T10:41:01;10.63;;;4.82;;
44120;SDS011;29783;52.504;13.478;2023-10-13T10:48:36;12.48;;;4.40;;
44120;SDS011;29783;52.504;13.478;2023-10-13T10:53:43;8.32;;;5.10;;
44120;SDS011;29783;52.504;13.478;2023-10-13T10:56:21;9.02;;;4.78;;
44120;SDS011;29783;52.504;13.478;2023-10-13T10:58:50;12.25;;;4.75;;
44120;SDS011;29783;52.504;13.478;2023-10-13T11:01:20;9.68;;;5.20;;
44120;SDS011;29783;52.504;13.478;2023-10-13T11:04:08;11.57;;;4.45;;
44120;SDS011;29783;52.504;13.478;2023-10-13T11:06:44;10.88;;;5.30;;
44120;SDS011;29783;52.504;13.478;2023-10-13T11:09:11;9.73;;;4.95;;
44120;SDS011;29783;52.504;13.478;2023-10-13T11:11:46;7.22;;;5.05;;
44120;SDS011;29783;52.504;13.478;2023-10-13T11:14:24;9.93;;;4.85;;
44120;SDS011;29783;52.504;13.478;2023-10-13T11:16:51;9.75;;;5.03;;
44120;SDS011;29783;52.504;13.478;2023-10-13T11:19:45;7.47;;;5.00;;
44120;SDS011;29783;52.504;13.478;2023-10-13T11:24:54;8.73;;;5.13;;
44120;SDS011;29783;52.504;13.478;2023-10-13T11:27:20;9.88;;;4.60;;
44120;SDS011;29783;52.504;13.478;2023-10-13T11:30:02;10.85;;;5.00;;
44120;SDS011;29783;52.504;13.478;2023-10-13T11:32:38;13.13;;;5.10;;
44120;SDS011;29783;52.504;13.478;2023-10-13T11:35:07;8.02;;;4.82;;
44120;SDS011;29783;52.504;13.478;2023-10-13T11:37:45;14.10;;;4.78;;
44120;SDS011;29783;52.504;13.478;2023-10-13T11:40:20;9.98;;;4.80;;
44120;SDS011;29783;52.504;13.478;2023-10-13T11:43:06;12.27;;;4.85;;
44120;SDS011;29783;52.504;13.478;2023-10-13T11:45:38;10.00;;;4.55;;
44120;SDS011;29783;52.504;13.478;2023-10-13T11:48:18;10.27;;;4.55;;
44120;SDS011;29783;52.504;13.478;2023-10-13T11:50:58;11.65;;;5.45;;
44120;SDS011;29783;52.504;13.478;2023-10-13T11:53:24;8.63;;;4.60;;
44120;SDS011;29783;52.504;13.478;2023-10-13T11:55:52;9.98;;;4.28;;
44120;SDS011;29783;52.504;13.478;2023-10-13T11:58:18;13.05;;;5.00;;
44120;SDS011;29783;52.504;13.478;2023-10-13T12:00:43;14.75;;;4.63;;
44120;SDS011;29783;52.504;13.478;2023-10-13T12:03:28;13.07;;;5.53;;
44120;SDS011;29783;52.504;13.478;2023-10-13T12:06:12;11.52;;;4.35;;
44120;SDS011;29783;52.504;13.478;2023-10-13T12:08:56;15.07;;;4.50;;
44120;SDS011;29783;52.504;13.478;2023-10-13T12:11:36;11.45;;;5.00;;
44120;SDS011;29783;52.504;13.478;2023-10-13T12:14:04;13.60;;;4.82;;
44120;SDS011;29783;52.504;13.478;2023-10-13T12:16:42;13.85;;;4.07;;
44120;SDS011;29783;52.504;13.478;2023-10-13T12:19:25;12.10;;;5.18;;
44120;SDS011;29783;52.504;13.478;2023-10-13T12:21:55;13.90;;;4.88;;
44120;SDS011;29783;52.504;13.478;2023-10-13T12:24:22;10.15;;;4.63;;
44120;SDS011;29783;52.504;13.478;2023-10-13T12:27:01;13.02;;;4.82;;
44120;SDS011;29783;52.504;13.478;2023-10-13T12:29:27;12.25;;;4.63;;
44120;SDS011;29783;52.504;13.478;2023-10-13T12:31:57;15.27;;;4.57;;
44120;SDS011;29783;52.504;13.478;2023-10-13T12:34:38;13.00;;;4.53;;
44120;SDS011;29783;52.504;13.478;2023-10-13T12:37:23;10.57;;;4.50;;
44120;SDS011;29783;52.504;13.478;2023-10-13T12:40:01;17.50;;;4.38;;
44120;SDS011;29783;52.504;13.478;2023-10-13T12:42:46;18.98;;;5.03;;
44120;SDS011;29783;52.504;13.478;2023-10-13T12:45:31;12.50;;;4.30;;
44120;SDS011;29783;52.504;13.478;2023-10-13T12:48:15;11.32;;;4.60;;
44120;SDS011;29783;52.504;13.478;2023-10-13T12:51:02;12.25;;;4.07;;
44120;SDS011;29783;52.504;13.478;2023-10-13T12:53:47;12.27;;;4.80;;
44120;SDS011;29783;52.504;13.478;2023-10-13T12:56:13;12.95;;;4.75;;
44120;SDS011;29783;52.504;13.478;2023-10-13T12:58:40;13.57;;;4.82;;
44120;SDS011;29783;52.504;13.478;2023-10-13T13:01:06;15.80;;;4.75;;
44120;SDS011;29783;52.504;13.478;2023-10-13T13:03:32;13.90;;;4.57;;
44120;SDS011;29783;52.504;13.478;2023-10-13T13:06:00;13.77;;;4.32;;
44120;SDS011;29783;52.504;13.478;2023-10-13T13:08:32;18.30;;;4.60;;
44120;SDS011;29783;52.504;13.478;2023-10-13T13:11:01;15.18;;;4.30;;
44120;SDS011;29783;52.504;13.478;2023-10-13T13:13:27;14.88;;;4.65;;
44120;SDS011;29783;52.504;13.478;2023-10-13T13:15:53;18.52;;;4.22;;
44120;SDS011;29783;52.504;13.478;2023-10-13T13:18:19;22.73;;;4.50;;
44120;SDS011;29783;52.504;13.478;2023-10-13T13:20:45;13.05;;;4.13;;
44120;SDS011;29783;52.504;13.478;2023-10-13T13:23:20;13.75;;;4.25;;
44120;SDS011;29783;52.504;13.478;2023-10-13T13:25:50;13.07;;;4.18;;
44120;SDS011;29783;52.504;13.478;2023-10-13T13:28:16;12.30;;;4.85;;
44120;SDS011;29783;52.504;13.478;2023-10-13T13:30:42;12.85;;;3.95;;
44120;SDS011;29783;52.504;13.478;2023-10-13T13:33:08;13.30;;;4.13;;
44120;SDS011;29783;52.504;13.478;2023-10-13T13:35:37;10.80;;;4.22;;
44120;SDS011;29783;52.504;13.478;2023-10-13T13:38:03;17.45;;;4.57;;
44120;SDS011;29783;52.504;13.478;2023-10-13T13:40:36;13.80;;;4.47;;
44120;SDS011;29783;52.504;13.478;2023-10-13T13:43:03;22.40;;;4.47;;
44120;SDS011;29783;52.504;13.478;2023-10-13T13:45:28;14.88;;;4.40;;
44120;SDS011;29783;52.504;13.478;2023-10-13T13:47:54;13.02;;;4.68;;
44120;SDS011;29783;52.504;13.478;2023-10-13T13:50:21;18.13;;;4.80;;
44120;SDS011;29783;52.504;13.478;2023-10-13T13:52:52;17.98;;;5.22;;
44120;SDS011;29783;52.504;13.478;2023-10-13T13:55:22;16.23;;;4.47;;
44120;SDS011;29783;52.504;13.478;2023-10-13T13:57:49;12.95;;;3.75;;
44120;SDS011;29783;52.504;13.478;2023-10-13T14:00:16;13.10;;;4.30;;
44120;SDS011;29783;52.504;13.478;2023-10-13T14:02:46;23.40;;;3.95;;
44120;SDS011;29783;52.504;13.478;2023-10-13T14:05:15;11.48;;;3.55;;
44120;SDS011;29783;52.504;13.478;2023-10-13T14:07:44;19.50;;;4.30;;
44120;SDS011;29783;52.504;13.478;2023-10-13T14:10:16;19.80;;;4.68;;
44120;SDS011;29783;52.504;13.478;2023-10-13T14:12:57;13.35;;;4.03;;
44120;SDS011;29783;52.504;13.478;2023-10-13T14:15:31;14.55;;;4.30;;
44120;SDS011;29783;52.504;13.478;2023-10-13T14:18:04;12.15;;;3.42;;
44120;SDS011;29783;52.504;13.478;2023-10-13T14:20:32;12.13;;;3.75;;
44120;SDS011;29783;52.504;13.478;2023-10-13T14:23:04;15.02;;;4.18;;
44120;SDS011;29783;52.504;13.478;2023-10-13T14:25:33;15.40;;;3.85;;
44120;SDS011;29783;52.504;13.478;2023-10-13T14:28:03;12.27;;;3.72;;
44120;SDS011;29783;52.504;13.478;2023-10-13T14:30:30;15.55;;;3.97;;
44120;SDS011;29783;52.504;13.478;2023-10-13T14:32:56;15.25;;;4.20;;
44120;SDS011;29783;52.504;13.478;2023-10-13T14:35:23;17.63;;;4.50;;
44120;SDS011;29783;52.504;13.478;2023-10-13T14:37:51;14.05;;;3.83;;
44120;SDS011;29783;52.504;13.478;2023-10-13T14:40:17;19.85;;;4.18;;
44120;SDS011;29783;52.504;13.478;2023-10-13T14:42:46;15.10;;;4.07;;
44120;SDS011;29783;52.504;13.478;2023-10-13T14:45:12;14.35;;;4.32;;
44120;SDS011;29783;52.504;13.478;2023-10-13T14:47:41;17.52;;;4.00;;
44120;SDS011;29783;52.504;13.478;2023-10-13T14:50:08;16.00;;;4.00;;
44120;SDS011;29783;52.504;13.478;2023-10-13T14:52:42;13.25;;;4.10;;
44120;SDS011;29783;52.504;13.478;2023-10-13T14:55:08;14.15;;;4.25;;
44120;SDS011;29783;52.504;13.478;2023-10-13T14:57:43;11.45;;;4.55;;
44120;SDS011;29783;52.504;13.478;2023-10-13T15:00:10;15.10;;;4.85;;
44120;SDS011;29783;52.504;13.478;2023-10-13T15:02:38;22.85;;;4.45;;
44120;SDS011;29783;52.504;13.478;2023-10-13T15:05:04;19.20;;;4.53;;
44120;SDS011;29783;52.504;13.478;2023-10-13T15:07:30;20.48;;;4.05;;
44120;SDS011;29783;52.504;13.478;2023-10-13T15:09:55;14.93;;;4.32;;
44120;SDS011;29783;52.504;13.478;2023-10-13T15:12:22;14.20;;;4.60;;
44120;SDS011;29783;52.504;13.478;2023-10-13T15:14:47;17.15;;;4.97;;
44120;SDS011;29783;52.504;13.478;2023-10-13T15:17:13;20.90;;;5.25;;
44120;SDS011;29783;52.504;13.478;2023-10-13T15:19:41;19.67;;;4.93;;
44120;SDS011;29783;52.504;13.478;2023-10-13T15:22:08;21.20;;;4.53;;
44120;SDS011;29783;52.504;13.478;2023-10-13T15:24:41;20.65;;;4.85;;
44120;SDS011;29783;52.504;13.478;2023-10-13T15:27:11;19.08;;;4.43;;
44120;SDS011;29783;52.504;13.478;2023-10-13T15:29:37;15.43;;;4.70;;
44120;SDS011;29783;52.504;13.478;2023-10-13T15:32:03;18.13;;;4.63;;
44120;SDS011;29783;52.504;13.478;2023-10-13T15:35:11;22.17;;;5.05;;
44120;SDS011;29783;52.504;13.478;2023-10-13T15:37:38;17.75;;;4.63;;
44120;SDS011;29783;52.504;13.478;2023-10-13T15:40:06;11.57;;;5.00;;